sensor_id;sensor_type;location;lat;lon;timestamp;P1;durP1;ratioP1;P2;durP2;ratioP2
34499;SDS011;20745;50.882;6.962;2022-08-25T00:00:55;9.05;;;2.63;;
34499;SDS011;20745;50.882;6.962;2022-08-25T00:03:42;8.32;;;2.50;;
34499;SDS011;20745;50.882;6.962;2022-08-25T00:06:31;6.30;;;2.42;;
34499;SDS011;20745;50.882;6.962;2022-08-25T00:09:19;11.43;;;2.65;;
34499;SDS011;20745;50.882;6.962;2022-08-25T00:12:08;8.57;;;2.47;;
34499;SDS011;20745;50.882;6.962;2022-08-25T00:14:55;8.10;;;2.40;;
34499;SDS011;20745;50.882;6.962;2022-08-25T00:17:43;7.78;;;2.58;;
34499;SDS011;20745;50.882;6.962;2022-08-25T00:20:31;9.27;;;2.30;;
34499;SDS011;20745;50.882;6.962;2022-08-25T00:23:18;9.30;;;2.80;;
34499;SDS011;20745;50.882;6.962;2022-08-25T00:26:07;10.85;;;2.58;;
34499;SDS011;20745;50.882;6.962;2022-08-25T00:28:55;6.32;;;2.00;;
34499;SDS011;20745;50.882;6.962;2022-08-25T00:31:48;8.18;;;2.40;;
34499;SDS011;20745;50.882;6.962;2022-08-25T00:34:35;8.30;;;2.38;;
34499;SDS011;20745;50.882;6.962;2022-08-25T00:37:24;8.02;;;2.38;;
34499;SDS011;20745;50.882;6.962;2022-08-25T00:40:11;11.05;;;2.75;;
34499;SDS011;20745;50.882;6.962;2022-08-25T00:42:59;8.38;;;2.60;;
34499;SDS011;20745;50.882;6.962;2022-08-25T00:45:46;7.72;;;2.45;;
34499;SDS011;20745;50.882;6.962;2022-08-25T00:48:34;7.90;;;2.42;;
34499;SDS011;20745;50.882;6.962;2022-08-25T00:51:24;9.00;;;2.50;;
34499;SDS011;20745;50.882;6.962;2022-08-25T00:54:19;7.43;;;2.63;;
34499;SDS011;20745;50.882;6.962;2022-08-25T00:57:11;8.70;;;2.80;;
34499;SDS011;20745;50.882;6.962;2022-08-25T01:00:10;12.02;;;2.75;;
34499;SDS011;20745;50.882;6.962;2022-08-25T01:03:02;7.38;;;2.40;;
34499;SDS011;20745;50.882;6.962;2022-08-25T01:05:50;7.22;;;2.42;;
34499;SDS011;20745;50.882;6.962;2022-08-25T01:08:39;9.25;;;2.80;;
34499;SDS011;20745;50.882;6.962;2022-08-25T01:11:27;8.13;;;2.70;;
34499;SDS011;20745;50.882;6.962;2022-08-25T01:14:15;5.80;;;2.20;;
34499;SDS011;20745;50.882;6.962;2022-08-25T01:17:04;9.52;;;2.70;;
34499;SDS011;20745;50.882;6.962;2022-08-25T01:19:52;10.57;;;2.60;;
34499;SDS011;20745;50.882;6.962;2022-08-25T01:22:40;8.85;;;2.55;;
34499;SDS011;20745;50.882;6.962;2022-08-25T01:28:44;10.45;;;2.70;;
34499;SDS011;20745;50.882;6.962;2022-08-25T01:31:57;7.88;;;2.65;;
34499;SDS011;20745;50.882;6.962;2022-08-25T01:34:50;9.50;;;2.83;;
34499;SDS011;20745;50.882;6.962;2022-08-25T01:37:38;9.70;;;2.78;;
34499;SDS011;20745;50.882;6.962;2022-08-25T01:40:25;8.98;;;2.70;;
34499;SDS011;20745;50.882;6.962;2022-08-25T01:46:01;8.55;;;2.72;;
34499;SDS011;20745;50.882;6.962;2022-08-25T01:48:48;9.35;;;2.55;;
34499;SDS011;20745;50.882;6.962;2022-08-25T01:51:41;8.63;;;2.70;;
34499;SDS011;20745;50.882;6.962;2022-08-25T01:54:32;8.65;;;2.70;;
34499;SDS011;20745;50.882;6.962;2022-08-25T01:57:20;9.38;;;2.80;;
34499;SDS011;20745;50.882;6.962;2022-08-25T02:00:09;14.00;;;3.28;;
34499;SDS011;20745;50.882;6.962;2022-08-25T02:02:59;9.90;;;2.72;;
34499;SDS011;20745;50.882;6.962;2022-08-25T02:05:46;7.13;;;2.63;;
34499;SDS011;20745;50.882;6.962;2022-08-25T02:08:35;11.02;;;2.85;;
34499;SDS011;20745;50.882;6.962;2022-08-25T02:11:22;13.95;;;3.17;;
34499;SDS011;20745;50.882;6.962;2022-08-25T02:14:11;9.45;;;2.90;;
34499;SDS011;20745;50.882;6.962;2022-08-25T02:16:59;11.73;;;2.92;;
34499;SDS011;20745;50.882;6.962;2022-08-25T02:19:47;10.60;;;2.95;;
34499;SDS011;20745;50.882;6.962;2022-08-25T02:22:34;9.07;;;2.53;;
34499;SDS011;20745;50.882;6.962;2022-08-25T02:25:21;12.48;;;3.00;;
34499;SDS011;20745;50.882;6.962;2022-08-25T02:28:09;7.97;;;2.80;;
34499;SDS011;20745;50.882;6.962;2022-08-25T02:30:57;11.88;;;2.95;;
34499;SDS011;20745;50.882;6.962;2022-08-25T02:33:47;7.88;;;2.78;;
34499;SDS011;20745;50.882;6.962;2022-08-25T02:36:35;10.25;;;2.80;;
34499;SDS011;20745;50.882;6.962;2022-08-25T02:39:23;13.50;;;2.93;;
34499;SDS011;20745;50.882;6.962;2022-08-25T02:42:11;12.20;;;2.95;;
34499;SDS011;20745;50.882;6.962;2022-08-25T02:44:58;12.10;;;3.22;;
34499;SDS011;20745;50.882;6.962;2022-08-25T02:47:45;9.57;;;2.80;;
34499;SDS011;20745;50.882;6.962;2022-08-25T02:50:33;9.45;;;3.10;;
34499;SDS011;20745;50.882;6.962;2022-08-25T02:53:20;10.40;;;2.80;;
34499;SDS011;20745;50.882;6.962;2022-08-25T02:56:08;8.70;;;2.67;;
34499;SDS011;20745;50.882;6.962;2022-08-25T02:58:57;7.30;;;2.40;;
34499;SDS011;20745;50.882;6.962;2022-08-25T03:01:44;9.10;;;2.90;;
34499;SDS011;20745;50.882;6.962;2022-08-25T03:04:32;10.27;;;2.90;;
34499;SDS011;20745;50.882;6.962;2022-08-25T03:07:19;7.55;;;2.97;;
34499;SDS011;20745;50.882;6.962;2022-08-25T03:10:13;16.20;;;3.20;;
34499;SDS011;20745;50.882;6.962;2022-08-25T03:13:02;11.13;;;2.70;;
34499;SDS011;20745;50.882;6.962;2022-08-25T03:15:49;7.80;;;2.70;;
34499;SDS011;20745;50.882;6.962;2022-08-25T03:18:39;10.35;;;3.05;;
34499;SDS011;20745;50.882;6.962;2022-08-25T03:21:28;6.30;;;2.47;;
34499;SDS011;20745;50.882;6.962;2022-08-25T03:24:15;6.68;;;2.50;;
34499;SDS011;20745;50.882;6.962;2022-08-25T03:27:03;11.52;;;2.70;;
34499;SDS011;20745;50.882;6.962;2022-08-25T03:29:50;11.95;;;3.03;;
34499;SDS011;20745;50.882;6.962;2022-08-25T03:32:38;8.07;;;2.80;;
34499;SDS011;20745;50.882;6.962;2022-08-25T03:35:25;13.38;;;3.05;;
34499;SDS011;20745;50.882;6.962;2022-08-25T03:38:12;10.73;;;2.63;;
34499;SDS011;20745;50.882;6.962;2022-08-25T03:40:59;8.25;;;2.80;;
34499;SDS011;20745;50.882;6.962;2022-08-25T03:43:48;10.68;;;2.75;;
34499;SDS011;20745;50.882;6.962;2022-08-25T03:46:37;11.48;;;2.97;;
34499;SDS011;20745;50.882;6.962;2022-08-25T03:49:29;8.82;;;2.40;;
34499;SDS011;20745;50.882;6.962;2022-08-25T03:52:19;13.60;;;3.17;;
34499;SDS011;20745;50.882;6.962;2022-08-25T03:55:07;14.50;;;2.90;;
34499;SDS011;20745;50.882;6.962;2022-08-25T04:00:43;8.20;;;2.60;;
34499;SDS011;20745;50.882;6.962;2022-08-25T04:03:30;11.32;;;3.30;;
34499;SDS011;20745;50.882;6.962;2022-08-25T04:06:18;7.90;;;2.58;;
34499;SDS011;20745;50.882;6.962;2022-08-25T04:09:06;8.50;;;2.97;;
34499;SDS011;20745;50.882;6.962;2022-08-25T04:11:53;10.00;;;2.97;;
34499;SDS011;20745;50.882;6.962;2022-08-25T04:14:41;8.75;;;2.65;;
34499;SDS011;20745;50.882;6.962;2022-08-25T04:17:28;11.05;;;2.97;;
34499;SDS011;20745;50.882;6.962;2022-08-25T04:20:15;11.45;;;2.83;;
34499;SDS011;20745;50.882;6.962;2022-08-25T04:23:03;7.25;;;2.80;;
34499;SDS011;20745;50.882;6.962;2022-08-25T04:25:50;10.38;;;3.03;;
34499;SDS011;20745;50.882;6.962;2022-08-25T04:28:38;7.32;;;2.95;;
34499;SDS011;20745;50.882;6.962;2022-08-25T04:31:27;12.13;;;3.00;;
34499;SDS011;20745;50.882;6.962;2022-08-25T04:34:16;10.90;;;3.20;;
34499;SDS011;20745;50.882;6.962;2022-08-25T04:37:16;9.68;;;3.00;;
34499;SDS011;20745;50.882;6.962;2022-08-25T04:40:04;8.98;;;3.00;;
34499;SDS011;20745;50.882;6.962;2022-08-25T04:42:52;15.00;;;2.97;;
34499;SDS011;20745;50.882;6.962;2022-08-25T04:45:40;8.85;;;2.60;;
34499;SDS011;20745;50.882;6.962;2022-08-25T04:48:27;11.25;;;3.15;;
34499;SDS011;20745;50.882;6.962;2022-08-25T04:51:15;8.15;;;2.90;;
34499;SDS011;20745;50.882;6.962;2022-08-25T04:54:07;12.20;;;3.60;;
34499;SDS011;20745;50.882;6.962;2022-08-25T04:56:57;11.40;;;3.20;;
34499;SDS011;20745;50.882;6.962;2022-08-25T04:59:45;9.02;;;2.80;;
34499;SDS011;20745;50.882;6.962;2022-08-25T05:02:32;10.48;;;3.53;;
34499;SDS011;20745;50.882;6.962;2022-08-25T05:05:19;12.27;;;3.25;;
34499;SDS011;20745;50.882;6.962;2022-08-25T05:08:06;12.77;;;3.35;;
34499;SDS011;20745;50.882;6.962;2022-08-25T05:10:54;11.10;;;2.88;;
34499;SDS011;20745;50.882;6.962;2022-08-25T05:13:43;10.77;;;3.05;;
34499;SDS011;20745;50.882;6.962;2022-08-25T05:16:37;11.65;;;3.53;;
34499;SDS011;20745;50.882;6.962;2022-08-25T05:19:25;12.95;;;3.40;;
34499;SDS011;20745;50.882;6.962;2022-08-25T05:22:12;12.52;;;3.60;;
34499;SDS011;20745;50.882;6.962;2022-08-25T05:24:59;10.10;;;3.13;;
34499;SDS011;20745;50.882;6.962;2022-08-25T05:27:46;10.88;;;3.20;;
34499;SDS011;20745;50.882;6.962;2022-08-25T05:30:36;9.82;;;3.13;;
34499;SDS011;20745;50.882;6.962;2022-08-25T05:33:26;9.70;;;3.40;;
34499;SDS011;20745;50.882;6.962;2022-08-25T05:36:19;13.30;;;4.20;;
34499;SDS011;20745;50.882;6.962;2022-08-25T05:39:07;13.30;;;3.58;;
34499;SDS011;20745;50.882;6.962;2022-08-25T05:41:55;14.23;;;3.45;;
34499;SDS011;20745;50.882;6.962;2022-08-25T05:44:43;12.77;;;3.50;;
34499;SDS011;20745;50.882;6.962;2022-08-25T05:47:30;17.65;;;4.18;;
34499;SDS011;20745;50.882;6.962;2022-08-25T05:50:17;14.25;;;4.28;;
34499;SDS011;20745;50.882;6.962;2022-08-25T05:53:05;14.45;;;3.67;;
34499;SDS011;20745;50.882;6.962;2022-08-25T05:55:53;11.80;;;3.85;;
34499;SDS011;20745;50.882;6.962;2022-08-25T05:58:41;14.52;;;3.90;;
34499;SDS011;20745;50.882;6.962;2022-08-25T06:01:29;16.90;;;4.10;;
34499;SDS011;20745;50.882;6.962;2022-08-25T06:04:35;14.30;;;3.83;;
34499;SDS011;20745;50.882;6.962;2022-08-25T06:07:27;16.45;;;4.20;;
34499;SDS011;20745;50.882;6.962;2022-08-25T06:10:15;15.52;;;3.90;;
34499;SDS011;20745;50.882;6.962;2022-08-25T06:13:03;12.10;;;4.03;;
34499;SDS011;20745;50.882;6.962;2022-08-25T06:15:56;13.10;;;3.63;;
34499;SDS011;20745;50.882;6.962;2022-08-25T06:18:43;14.07;;;3.65;;
34499;SDS011;20745;50.882;6.962;2022-08-25T06:21:31;15.02;;;3.95;;
34499;SDS011;20745;50.882;6.962;2022-08-25T06:24:20;16.60;;;4.43;;
34499;SDS011;20745;50.882;6.962;2022-08-25T06:27:08;15.95;;;3.95;;
34499;SDS011;20745;50.882;6.962;2022-08-25T06:29:55;16.35;;;4.22;;
34499;SDS011;20745;50.882;6.962;2022-08-25T06:32:46;21.33;;;4.50;;
34499;SDS011;20745;50.882;6.962;2022-08-25T06:35:35;21.02;;;4.05;;
34499;SDS011;20745;50.882;6.962;2022-08-25T06:38:23;14.00;;;4.30;;
34499;SDS011;20745;50.882;6.962;2022-08-25T06:41:10;12.05;;;4.35;;
34499;SDS011;20745;50.882;6.962;2022-08-25T06:43:58;10.90;;;3.67;;
34499;SDS011;20745;50.882;6.962;2022-08-25T06:46:51;21.10;;;4.70;;
34499;SDS011;20745;50.882;6.962;2022-08-25T06:49:38;14.88;;;3.83;;
34499;SDS011;20745;50.882;6.962;2022-08-25T06:52:26;13.93;;;4.20;;
34499;SDS011;20745;50.882;6.962;2022-08-25T06:58:02;11.13;;;3.78;;
34499;SDS011;20745;50.882;6.962;2022-08-25T07:00:51;10.95;;;3.70;;
34499;SDS011;20745;50.882;6.962;2022-08-25T07:03:39;10.73;;;3.55;;
34499;SDS011;20745;50.882;6.962;2022-08-25T07:06:27;13.30;;;4.10;;
34499;SDS011;20745;50.882;6.962;2022-08-25T07:09:17;11.38;;;3.88;;
34499;SDS011;20745;50.882;6.962;2022-08-25T07:12:05;13.90;;;4.00;;
34499;SDS011;20745;50.882;6.962;2022-08-25T07:14:52;12.45;;;3.72;;
34499;SDS011;20745;50.882;6.962;2022-08-25T07:17:59;12.70;;;4.28;;
34499;SDS011;20745;50.882;6.962;2022-08-25T07:20:47;14.10;;;3.75;;
34499;SDS011;20745;50.882;6.962;2022-08-25T07:23:34;15.32;;;4.05;;
34499;SDS011;20745;50.882;6.962;2022-08-25T07:26:25;13.82;;;3.88;;
34499;SDS011;20745;50.882;6.962;2022-08-25T07:29:29;10.68;;;3.83;;
34499;SDS011;20745;50.882;6.962;2022-08-25T07:32:19;15.23;;;3.88;;
34499;SDS011;20745;50.882;6.962;2022-08-25T07:35:07;12.68;;;4.00;;
34499;SDS011;20745;50.882;6.962;2022-08-25T07:38:06;11.83;;;3.53;;
34499;SDS011;20745;50.882;6.962;2022-08-25T07:41:00;14.88;;;4.10;;
34499;SDS011;20745;50.882;6.962;2022-08-25T07:43:50;13.77;;;4.28;;
34499;SDS011;20745;50.882;6.962;2022-08-25T07:46:39;15.95;;;3.95;;
34499;SDS011;20745;50.882;6.962;2022-08-25T07:49:28;10.23;;;3.70;;
34499;SDS011;20745;50.882;6.962;2022-08-25T07:52:25;12.93;;;4.15;;
34499;SDS011;20745;50.882;6.962;2022-08-25T07:55:13;11.05;;;3.63;;
34499;SDS011;20745;50.882;6.962;2022-08-25T07:58:05;10.25;;;3.42;;
34499;SDS011;20745;50.882;6.962;2022-08-25T08:00:54;13.32;;;4.15;;
34499;SDS011;20745;50.882;6.962;2022-08-25T08:03:42;11.43;;;3.90;;
34499;SDS011;20745;50.882;6.962;2022-08-25T08:06:37;10.90;;;3.50;;
34499;SDS011;20745;50.882;6.962;2022-08-25T08:09:25;11.00;;;4.00;;
34499;SDS011;20745;50.882;6.962;2022-08-25T08:12:12;14.05;;;4.35;;
34499;SDS011;20745;50.882;6.962;2022-08-25T08:15:01;10.48;;;3.33;;
34499;SDS011;20745;50.882;6.962;2022-08-25T08:17:48;11.88;;;4.10;;
34499;SDS011;20745;50.882;6.962;2022-08-25T08:20:36;13.80;;;4.65;;
34499;SDS011;20745;50.882;6.962;2022-08-25T08:23:29;11.82;;;4.05;;
34499;SDS011;20745;50.882;6.962;2022-08-25T08:26:16;13.65;;;4.10;;
34499;SDS011;20745;50.882;6.962;2022-08-25T08:29:04;12.88;;;3.55;;
34499;SDS011;20745;50.882;6.962;2022-08-25T08:31:51;10.73;;;3.63;;
34499;SDS011;20745;50.882;6.962;2022-08-25T08:34:39;13.45;;;4.03;;
34499;SDS011;20745;50.882;6.962;2022-08-25T08:37:27;14.15;;;4.40;;
34499;SDS011;20745;50.882;6.962;2022-08-25T08:40:17;9.43;;;3.35;;
34499;SDS011;20745;50.882;6.962;2022-08-25T08:43:08;11.52;;;4.07;;
34499;SDS011;20745;50.882;6.962;2022-08-25T08:46:04;9.52;;;3.33;;
34499;SDS011;20745;50.882;6.962;2022-08-25T08:48:55;12.40;;;3.92;;
34499;SDS011;20745;50.882;6.962;2022-08-25T08:51:49;12.05;;;3.65;;
34499;SDS011;20745;50.882;6.962;2022-08-25T08:54:42;9.55;;;3.40;;
34499;SDS011;20745;50.882;6.962;2022-08-25T08:57:33;12.57;;;3.70;;
34499;SDS011;20745;50.882;6.962;2022-08-25T09:00:28;10.63;;;3.22;;
34499;SDS011;20745;50.882;6.962;2022-08-25T09:09:28;12.52;;;3.80;;
34499;SDS011;20745;50.882;6.962;2022-08-25T09:12:33;12.75;;;3.65;;
34499;SDS011;20745;50.882;6.962;2022-08-25T09:15:44;7.53;;;3.15;;
34499;SDS011;20745;50.882;6.962;2022-08-25T09:19:13;10.18;;;3.38;;
34499;SDS011;20745;50.882;6.962;2022-08-25T09:25:38;11.50;;;3.20;;
34499;SDS011;20745;50.882;6.962;2022-08-25T09:28:54;11.10;;;3.40;;
34499;SDS011;20745;50.882;6.962;2022-08-25T09:32:03;8.52;;;2.95;;
34499;SDS011;20745;50.882;6.962;2022-08-25T09:34:53;8.73;;;3.08;;
34499;SDS011;20745;50.882;6.962;2022-08-25T09:37:54;10.73;;;3.22;;
34499;SDS011;20745;50.882;6.962;2022-08-25T09:40:53;8.75;;;3.03;;
34499;SDS011;20745;50.882;6.962;2022-08-25T09:43:43;8.68;;;3.55;;
34499;SDS011;20745;50.882;6.962;2022-08-25T09:46:38;12.38;;;3.40;;
34499;SDS011;20745;50.882;6.962;2022-08-25T09:49:35;12.02;;;3.95;;
34499;SDS011;20745;50.882;6.962;2022-08-25T09:58:21;12.40;;;3.75;;
34499;SDS011;20745;50.882;6.962;2022-08-25T10:04:08;8.65;;;3.05;;
34499;SDS011;20745;50.882;6.962;2022-08-25T10:07:29;10.70;;;3.70;;
34499;SDS011;20745;50.882;6.962;2022-08-25T10:10:32;9.75;;;3.13;;
34499;SDS011;20745;50.882;6.962;2022-08-25T10:13:30;10.20;;;3.65;;
34499;SDS011;20745;50.882;6.962;2022-08-25T10:16:24;9.30;;;3.60;;
34499;SDS011;20745;50.882;6.962;2022-08-25T10:22:08;10.75;;;3.08;;
34499;SDS011;20745;50.882;6.962;2022-08-25T10:25:13;12.13;;;3.70;;
34499;SDS011;20745;50.882;6.962;2022-08-25T10:28:25;9.25;;;3.95;;
34499;SDS011;20745;50.882;6.962;2022-08-25T10:31:30;11.27;;;3.35;;
34499;SDS011;20745;50.882;6.962;2022-08-25T10:34:36;10.02;;;3.75;;
34499;SDS011;20745;50.882;6.962;2022-08-25T10:40:55;11.32;;;3.80;;
34499;SDS011;20745;50.882;6.962;2022-08-25T10:44:05;9.02;;;3.38;;
34499;SDS011;20745;50.882;6.962;2022-08-25T10:50:37;8.15;;;3.35;;
34499;SDS011;20745;50.882;6.962;2022-08-25T10:56:30;12.43;;;3.78;;
34499;SDS011;20745;50.882;6.962;2022-08-25T10:59:29;10.67;;;3.70;;
34499;SDS011;20745;50.882;6.962;2022-08-25T11:05:55;10.32;;;3.22;;
34499;SDS011;20745;50.882;6.962;2022-08-25T11:08:52;9.93;;;4.00;;
34499;SDS011;20745;50.882;6.962;2022-08-25T11:11:47;11.32;;;3.60;;
34499;SDS011;20745;50.882;6.962;2022-08-25T11:14:55;9.15;;;3.40;;
34499;SDS011;20745;50.882;6.962;2022-08-25T11:18:01;10.52;;;3.85;;
34499;SDS011;20745;50.882;6.962;2022-08-25T11:21:05;12.20;;;4.00;;
34499;SDS011;20745;50.882;6.962;2022-08-25T11:23:57;9.05;;;3.38;;
34499;SDS011;20745;50.882;6.962;2022-08-25T11:26:54;9.82;;;3.67;;
34499;SDS011;20745;50.882;6.962;2022-08-25T11:29:42;11.45;;;3.88;;
34499;SDS011;20745;50.882;6.962;2022-08-25T11:33:00;8.30;;;3.13;;
34499;SDS011;20745;50.882;6.962;2022-08-25T11:36:01;9.90;;;3.70;;
34499;SDS011;20745;50.882;6.962;2022-08-25T11:43:09;10.07;;;3.50;;
34499;SDS011;20745;50.882;6.962;2022-08-25T11:55:29;10.23;;;3.78;;
34499;SDS011;20745;50.882;6.962;2022-08-25T12:04:31;11.95;;;4.07;;
34499;SDS011;20745;50.882;6.962;2022-08-25T12:13:45;12.13;;;3.92;;
34499;SDS011;20745;50.882;6.962;2022-08-25T12:16:38;15.00;;;4.38;;
34499;SDS011;20745;50.882;6.962;2022-08-25T12:25:32;11.82;;;4.05;;
34499;SDS011;20745;50.882;6.962;2022-08-25T12:28:40;9.20;;;3.72;;
34499;SDS011;20745;50.882;6.962;2022-08-25T12:31:57;12.65;;;3.80;;
34499;SDS011;20745;50.882;6.962;2022-08-25T12:38:04;9.00;;;3.50;;
34499;SDS011;20745;50.882;6.962;2022-08-25T12:40:59;10.10;;;3.60;;
34499;SDS011;20745;50.882;6.962;2022-08-25T12:43:53;9.20;;;3.38;;
34499;SDS011;20745;50.882;6.962;2022-08-25T12:47:24;10.15;;;3.63;;
34499;SDS011;20745;50.882;6.962;2022-08-25T12:50:27;9.60;;;3.60;;
34499;SDS011;20745;50.882;6.962;2022-08-25T12:56:33;10.77;;;3.17;;
34499;SDS011;20745;50.882;6.962;2022-08-25T12:59:34;9.60;;;3.45;;
34499;SDS011;20745;50.882;6.962;2022-08-25T13:11:56;10.23;;;3.05;;
34499;SDS011;20745;50.882;6.962;2022-08-25T13:14:55;10.20;;;3.55;;
34499;SDS011;20745;50.882;6.962;2022-08-25T13:17:43;7.65;;;3.15;;
34499;SDS011;20745;50.882;6.962;2022-08-25T13:20:32;9.75;;;3.05;;
34499;SDS011;20745;50.882;6.962;2022-08-25T13:23:24;10.30;;;3.10;;
34499;SDS011;20745;50.882;6.962;2022-08-25T13:26:25;10.82;;;3.67;;
34499;SDS011;20745;50.882;6.962;2022-08-25T13:29:27;10.35;;;3.10;;
34499;SDS011;20745;50.882;6.962;2022-08-25T13:32:28;11.40;;;3.53;;
34499;SDS011;20745;50.882;6.962;2022-08-25T13:35:29;7.15;;;2.88;;
34499;SDS011;20745;50.882;6.962;2022-08-25T13:38:18;10.45;;;3.17;;
34499;SDS011;20745;50.882;6.962;2022-08-25T13:41:06;10.68;;;3.40;;
34499;SDS011;20745;50.882;6.962;2022-08-25T13:43:56;8.25;;;3.10;;
34499;SDS011;20745;50.882;6.962;2022-08-25T13:47:03;7.97;;;2.92;;
34499;SDS011;20745;50.882;6.962;2022-08-25T13:50:06;6.85;;;2.63;;
34499;SDS011;20745;50.882;6.962;2022-08-25T13:55:57;9.90;;;3.00;;
34499;SDS011;20745;50.882;6.962;2022-08-25T13:58:46;8.23;;;2.63;;
34499;SDS011;20745;50.882;6.962;2022-08-25T14:01:36;10.98;;;3.10;;
34499;SDS011;20745;50.882;6.962;2022-08-25T14:07:36;11.55;;;3.30;;
34499;SDS011;20745;50.882;6.962;2022-08-25T14:10:40;7.05;;;2.97;;
34499;SDS011;20745;50.882;6.962;2022-08-25T14:13:32;8.43;;;3.00;;
34499;SDS011;20745;50.882;6.962;2022-08-25T14:16:21;8.85;;;2.95;;
34499;SDS011;20745;50.882;6.962;2022-08-25T14:19:13;7.43;;;2.95;;
34499;SDS011;20745;50.882;6.962;2022-08-25T14:22:06;8.88;;;3.35;;
34499;SDS011;20745;50.882;6.962;2022-08-25T14:24:54;9.55;;;2.85;;
34499;SDS011;20745;50.882;6.962;2022-08-25T14:27:42;7.32;;;2.85;;
34499;SDS011;20745;50.882;6.962;2022-08-25T14:36:29;10.88;;;2.85;;
34499;SDS011;20745;50.882;6.962;2022-08-25T14:39:17;7.53;;;2.58;;
34499;SDS011;20745;50.882;6.962;2022-08-25T14:42:05;9.02;;;3.10;;
34499;SDS011;20745;50.882;6.962;2022-08-25T14:44:53;12.20;;;3.35;;
34499;SDS011;20745;50.882;6.962;2022-08-25T14:47:42;8.48;;;2.95;;
34499;SDS011;20745;50.882;6.962;2022-08-25T14:50:36;8.50;;;2.80;;
34499;SDS011;20745;50.882;6.962;2022-08-25T14:53:27;7.82;;;2.47;;
34499;SDS011;20745;50.882;6.962;2022-08-25T14:56:14;6.95;;;2.40;;
34499;SDS011;20745;50.882;6.962;2022-08-25T14:59:02;7.88;;;2.72;;
34499;SDS011;20745;50.882;6.962;2022-08-25T15:01:50;8.32;;;2.90;;
34499;SDS011;20745;50.882;6.962;2022-08-25T15:04:38;7.47;;;2.95;;
34499;SDS011;20745;50.882;6.962;2022-08-25T15:07:35;5.65;;;2.53;;
34499;SDS011;20745;50.882;6.962;2022-08-25T15:10:41;9.18;;;2.85;;
34499;SDS011;20745;50.882;6.962;2022-08-25T15:13:29;5.97;;;2.50;;
34499;SDS011;20745;50.882;6.962;2022-08-25T15:16:21;10.38;;;3.47;;
34499;SDS011;20745;50.882;6.962;2022-08-25T15:19:22;7.90;;;2.80;;
34499;SDS011;20745;50.882;6.962;2022-08-25T15:22:11;8.93;;;2.70;;
34499;SDS011;20745;50.882;6.962;2022-08-25T15:24:58;7.18;;;2.67;;
34499;SDS011;20745;50.882;6.962;2022-08-25T15:27:47;9.70;;;2.60;;
34499;SDS011;20745;50.882;6.962;2022-08-25T15:30:35;8.45;;;2.40;;
34499;SDS011;20745;50.882;6.962;2022-08-25T15:33:22;8.88;;;2.67;;
34499;SDS011;20745;50.882;6.962;2022-08-25T15:36:10;8.00;;;2.53;;
34499;SDS011;20745;50.882;6.962;2022-08-25T15:39:02;6.78;;;2.40;;
34499;SDS011;20745;50.882;6.962;2022-08-25T15:41:51;9.13;;;2.88;;
34499;SDS011;20745;50.882;6.962;2022-08-25T15:44:38;7.28;;;2.50;;
34499;SDS011;20745;50.882;6.962;2022-08-25T15:47:27;4.03;;;2.30;;
34499;SDS011;20745;50.882;6.962;2022-08-25T15:50:16;7.13;;;2.22;;
34499;SDS011;20745;50.882;6.962;2022-08-25T15:53:12;11.60;;;2.60;;
34499;SDS011;20745;50.882;6.962;2022-08-25T15:56:00;4.80;;;2.17;;
34499;SDS011;20745;50.882;6.962;2022-08-25T15:58:53;6.25;;;2.30;;
34499;SDS011;20745;50.882;6.962;2022-08-25T16:01:41;5.87;;;2.33;;
34499;SDS011;20745;50.882;6.962;2022-08-25T16:04:30;8.57;;;2.30;;
34499;SDS011;20745;50.882;6.962;2022-08-25T16:07:18;4.78;;;2.30;;
34499;SDS011;20745;50.882;6.962;2022-08-25T16:10:08;7.95;;;2.50;;
34499;SDS011;20745;50.882;6.962;2022-08-25T16:12:56;4.72;;;2.22;;
34499;SDS011;20745;50.882;6.962;2022-08-25T16:15:47;5.28;;;2.20;;
34499;SDS011;20745;50.882;6.962;2022-08-25T16:18:40;6.68;;;2.40;;
34499;SDS011;20745;50.882;6.962;2022-08-25T16:21:30;6.35;;;2.38;;
34499;SDS011;20745;50.882;6.962;2022-08-25T16:24:21;6.28;;;2.40;;
34499;SDS011;20745;50.882;6.962;2022-08-25T16:27:09;7.00;;;2.50;;
34499;SDS011;20745;50.882;6.962;2022-08-25T16:32:45;4.80;;;2.15;;
34499;SDS011;20745;50.882;6.962;2022-08-25T16:35:33;8.13;;;2.60;;
34499;SDS011;20745;50.882;6.962;2022-08-25T16:38:22;7.47;;;2.45;;
34499;SDS011;20745;50.882;6.962;2022-08-25T16:41:13;5.60;;;2.00;;
34499;SDS011;20745;50.882;6.962;2022-08-25T16:44:03;6.88;;;2.60;;
34499;SDS011;20745;50.882;6.962;2022-08-25T16:46:57;4.82;;;2.15;;
34499;SDS011;20745;50.882;6.962;2022-08-25T16:49:45;6.75;;;2.20;;
34499;SDS011;20745;50.882;6.962;2022-08-25T16:52:32;5.00;;;2.40;;
34499;SDS011;20745;50.882;6.962;2022-08-25T16:55:38;6.07;;;2.22;;
34499;SDS011;20745;50.882;6.962;2022-08-25T16:58:25;7.22;;;2.78;;
34499;SDS011;20745;50.882;6.962;2022-08-25T17:01:16;6.65;;;2.47;;
34499;SDS011;20745;50.882;6.962;2022-08-25T17:04:03;7.97;;;2.58;;
34499;SDS011;20745;50.882;6.962;2022-08-25T17:06:51;8.30;;;2.85;;
34499;SDS011;20745;50.882;6.962;2022-08-25T17:09:38;7.32;;;2.33;;
34499;SDS011;20745;50.882;6.962;2022-08-25T17:12:26;4.85;;;2.40;;
34499;SDS011;20745;50.882;6.962;2022-08-25T17:15:13;10.00;;;2.33;;
34499;SDS011;20745;50.882;6.962;2022-08-25T17:18:07;6.43;;;2.40;;
34499;SDS011;20745;50.882;6.962;2022-08-25T17:21:04;6.78;;;2.45;;
34499;SDS011;20745;50.882;6.962;2022-08-25T17:23:54;7.68;;;2.75;;
34499;SDS011;20745;50.882;6.962;2022-08-25T17:26:47;9.02;;;2.25;;
34499;SDS011;20745;50.882;6.962;2022-08-25T17:29:38;3.97;;;2.00;;
34499;SDS011;20745;50.882;6.962;2022-08-25T17:32:26;4.53;;;2.30;;
34499;SDS011;20745;50.882;6.962;2022-08-25T17:35:16;4.65;;;2.15;;
34499;SDS011;20745;50.882;6.962;2022-08-25T17:38:03;5.03;;;2.08;;
34499;SDS011;20745;50.882;6.962;2022-08-25T17:40:53;5.30;;;2.25;;
34499;SDS011;20745;50.882;6.962;2022-08-25T17:43:43;6.47;;;2.70;;
34499;SDS011;20745;50.882;6.962;2022-08-25T17:46:30;8.55;;;2.50;;
34499;SDS011;20745;50.882;6.962;2022-08-25T17:49:18;6.88;;;2.50;;
34499;SDS011;20745;50.882;6.962;2022-08-25T17:52:05;8.05;;;2.67;;
34499;SDS011;20745;50.882;6.962;2022-08-25T17:54:54;6.55;;;2.55;;
34499;SDS011;20745;50.882;6.962;2022-08-25T17:57:44;18.17;;;8.77;;
34499;SDS011;20745;50.882;6.962;2022-08-25T18:00:35;33.20;;;13.23;;
34499;SDS011;20745;50.882;6.962;2022-08-25T18:03:30;31.80;;;14.32;;
34499;SDS011;20745;50.882;6.962;2022-08-25T18:06:18;24.38;;;8.68;;
34499;SDS011;20745;50.882;6.962;2022-08-25T18:09:07;23.00;;;9.07;;
34499;SDS011;20745;50.882;6.962;2022-08-25T18:11:55;23.58;;;8.43;;
34499;SDS011;20745;50.882;6.962;2022-08-25T18:14:43;23.55;;;7.95;;
34499;SDS011;20745;50.882;6.962;2022-08-25T18:17:32;22.25;;;7.70;;
34499;SDS011;20745;50.882;6.962;2022-08-25T18:20:20;20.85;;;7.90;;
34499;SDS011;20745;50.882;6.962;2022-08-25T18:23:07;19.27;;;6.95;;
34499;SDS011;20745;50.882;6.962;2022-08-25T18:25:55;14.63;;;4.28;;
34499;SDS011;20745;50.882;6.962;2022-08-25T18:28:47;17.00;;;4.82;;
34499;SDS011;20745;50.882;6.962;2022-08-25T18:31:34;13.38;;;4.22;;
34499;SDS011;20745;50.882;6.962;2022-08-25T18:34:22;12.15;;;4.13;;
34499;SDS011;20745;50.882;6.962;2022-08-25T18:37:10;13.40;;;4.30;;
34499;SDS011;20745;50.882;6.962;2022-08-25T18:40:16;15.85;;;5.22;;
34499;SDS011;20745;50.882;6.962;2022-08-25T18:43:10;12.40;;;4.25;;
34499;SDS011;20745;50.882;6.962;2022-08-25T18:45:58;14.60;;;4.20;;
34499;SDS011;20745;50.882;6.962;2022-08-25T18:48:46;13.40;;;4.30;;
34499;SDS011;20745;50.882;6.962;2022-08-25T18:51:38;17.65;;;4.60;;
34499;SDS011;20745;50.882;6.962;2022-08-25T18:54:26;13.90;;;4.35;;